This is the latest recevied weather packets stored in our database for station/object N6DZK. If no packets are shown the sender has not sent any weather packets the latest 10 day(s).
| Time | Temp. | Humidity | Pressure | Rain* | Wind** | Luminosity | Snow |
|---|---|---|---|---|---|---|---|
| 1778084505 | 20° C | 60% | 1020.3 hPa | 0 mm | - | 597 W/m² | - |
| 1778084202 | 20.56° C | 59% | 1020.5 hPa | 0 mm | - | 579 W/m² | - |
| 1778083898 | 20.56° C | 60% | 1020.3 hPa | 0 mm | - | 555 W/m² | - |
| 1778083596 | 20° C | 61% | 1020.6 hPa | 0 mm | - | 534 W/m² | - |
| 1778083293 | 20° C | 63% | 1020.4 hPa | 0 mm | - | 508 W/m² | - |
| 1778082992 | 20° C | 62% | 1020.4 hPa | 0 mm | - | 485 W/m² | - |
| 1778082689 | 18.89° C | 64% | 1020.7 hPa | 0 mm | - | 394 W/m² | - |
| 1778081550 | 18.89° C | 66% | 1020.6 hPa | 0 mm | - | 353 W/m² | - |
| 1778081247 | 17.78° C | 66% | 1020.7 hPa | 0 mm | - | 313 W/m² | - |
| 1778080944 | 18.33° C | 66% | 1020.8 hPa | 0 mm | - | 298 W/m² | - |
| 1778080644 | 17.22° C | 69% | 1020.8 hPa | 0 mm | - | 284 W/m² | - |
| 1778080340 | 17.22° C | 68% | 1020.8 hPa | 0 mm | - | 261 W/m² | - |
| 1778080036 | 17.22° C | 69% | 1020.8 hPa | 0 mm | - | 229 W/m² | - |
| 1778079733 | 17.22° C | 69% | 1020.7 hPa | 0 mm | - | 200 W/m² | - |
| 1778079430 | 16.11° C | 75% | 1020.8 hPa | 0 mm | - | 180 W/m² | - |
| 1778079127 | 14.44° C | 85% | 1020.9 hPa | 0 mm | - | 166 W/m² | - |
| 1778078824 | 12.78° C | 90% | 1020.8 hPa | 0 mm | - | 158 W/m² | - |
| 1778078521 | 12.22° C | 92% | 1021 hPa | 0 mm | - | 106 W/m² | - |
| 1778078219 | 11.67° C | 93% | 1021 hPa | 0 mm | - | 122 W/m² | - |
| 1778077916 | 11.11° C | 93% | 1021 hPa | 0 mm | - | 69 W/m² | - |
| 1778077615 | 11.11° C | 93% | 1021 hPa | 0 mm | - | 71 W/m² | - |
| 1778077312 | 11.11° C | 94% | 1020.9 hPa | 0 mm | - | 63 W/m² | - |
| 1778077010 | 11.67° C | 95% | 1020.8 hPa | 0 mm | - | 59 W/m² | - |
| 1778076708 | 11.67° C | 96% | 1020.6 hPa | 0 mm | - | 57 W/m² | - |
| 1778076405 | 11.67° C | 97% | 1020.7 hPa | 0 mm | - | 69 W/m² | - |
* Rain latest hour (hover to see other rain measurements)
** Current wind speed in m/s (hover to see current wind gust speed)